sensor_id;sensor_type;location;lat;lon;timestamp;P1;durP1;ratioP1;P2;durP2;ratioP2
43744;SDS011;29359;53.048;8.732;2022-11-20T00:00:03;13.13;;;9.82;;
43744;SDS011;29359;53.048;8.732;2022-11-20T00:02:05;13.18;;;9.82;;
43744;SDS011;29359;53.048;8.732;2022-11-20T00:04:08;17.23;;;10.00;;
43744;SDS011;29359;53.048;8.732;2022-11-20T00:06:11;15.35;;;10.57;;
43744;SDS011;29359;53.048;8.732;2022-11-20T00:08:17;15.95;;;10.77;;
43744;SDS011;29359;53.048;8.732;2022-11-20T00:10:18;16.25;;;10.77;;
43744;SDS011;29359;53.048;8.732;2022-11-20T00:12:20;16.38;;;10.63;;
43744;SDS011;29359;53.048;8.732;2022-11-20T00:14:21;14.18;;;10.02;;
43744;SDS011;29359;53.048;8.732;2022-11-20T00:16:23;15.90;;;10.20;;
43744;SDS011;29359;53.048;8.732;2022-11-20T00:18:26;14.80;;;10.50;;
43744;SDS011;29359;53.048;8.732;2022-11-20T00:20:28;17.08;;;9.93;;
43744;SDS011;29359;53.048;8.732;2022-11-20T00:22:29;15.82;;;10.70;;
43744;SDS011;29359;53.048;8.732;2022-11-20T00:24:31;18.92;;;10.25;;
43744;SDS011;29359;53.048;8.732;2022-11-20T00:26:32;12.88;;;9.68;;
43744;SDS011;29359;53.048;8.732;2022-11-20T00:28:34;14.38;;;9.85;;
43744;SDS011;29359;53.048;8.732;2022-11-20T00:30:36;14.43;;;10.38;;
43744;SDS011;29359;53.048;8.732;2022-11-20T00:32:37;11.98;;;9.70;;
43744;SDS011;29359;53.048;8.732;2022-11-20T00:34:38;18.50;;;10.27;;
43744;SDS011;29359;53.048;8.732;2022-11-20T00:36:40;14.05;;;9.75;;
43744;SDS011;29359;53.048;8.732;2022-11-20T00:38:42;15.65;;;9.65;;
43744;SDS011;29359;53.048;8.732;2022-11-20T00:40:44;16.08;;;10.32;;
43744;SDS011;29359;53.048;8.732;2022-11-20T00:42:45;14.88;;;9.55;;
43744;SDS011;29359;53.048;8.732;2022-11-20T00:44:46;16.15;;;10.85;;
43744;SDS011;29359;53.048;8.732;2022-11-20T00:46:48;16.45;;;10.63;;
43744;SDS011;29359;53.048;8.732;2022-11-20T00:48:49;15.43;;;10.52;;
43744;SDS011;29359;53.048;8.732;2022-11-20T00:50:51;15.05;;;10.93;;
43744;SDS011;29359;53.048;8.732;2022-11-20T00:52:53;14.57;;;10.45;;
43744;SDS011;29359;53.048;8.732;2022-11-20T00:54:54;19.05;;;10.32;;
43744;SDS011;29359;53.048;8.732;2022-11-20T00:56:56;17.58;;;10.82;;
43744;SDS011;29359;53.048;8.732;2022-11-20T00:58:59;15.23;;;10.57;;
43744;SDS011;29359;53.048;8.732;2022-11-20T01:01:01;14.75;;;10.50;;
43744;SDS011;29359;53.048;8.732;2022-11-20T01:03:03;16.13;;;11.15;;
43744;SDS011;29359;53.048;8.732;2022-11-20T01:05:05;15.15;;;9.77;;
43744;SDS011;29359;53.048;8.732;2022-11-20T01:07:06;14.82;;;10.38;;
43744;SDS011;29359;53.048;8.732;2022-11-20T01:09:10;17.98;;;10.90;;
43744;SDS011;29359;53.048;8.732;2022-11-20T01:11:20;15.40;;;10.95;;
43744;SDS011;29359;53.048;8.732;2022-11-20T01:13:24;14.18;;;10.35;;
43744;SDS011;29359;53.048;8.732;2022-11-20T01:15:38;12.68;;;9.93;;
43744;SDS011;29359;53.048;8.732;2022-11-20T01:17:39;14.30;;;10.55;;
43744;SDS011;29359;53.048;8.732;2022-11-20T01:19:41;17.05;;;10.82;;
43744;SDS011;29359;53.048;8.732;2022-11-20T01:21:43;14.73;;;10.63;;
43744;SDS011;29359;53.048;8.732;2022-11-20T01:23:45;16.25;;;10.68;;
43744;SDS011;29359;53.048;8.732;2022-11-20T01:25:48;15.80;;;10.80;;
43744;SDS011;29359;53.048;8.732;2022-11-20T01:27:49;15.85;;;10.18;;
43744;SDS011;29359;53.048;8.732;2022-11-20T01:29:51;17.77;;;10.23;;
43744;SDS011;29359;53.048;8.732;2022-11-20T01:31:58;18.38;;;11.35;;
43744;SDS011;29359;53.048;8.732;2022-11-20T01:34:00;17.65;;;12.05;;
43744;SDS011;29359;53.048;8.732;2022-11-20T01:36:04;17.95;;;10.65;;
43744;SDS011;29359;53.048;8.732;2022-11-20T01:38:06;12.63;;;10.15;;
43744;SDS011;29359;53.048;8.732;2022-11-20T01:40:08;15.38;;;10.95;;
43744;SDS011;29359;53.048;8.732;2022-11-20T01:42:10;18.27;;;11.38;;
43744;SDS011;29359;53.048;8.732;2022-11-20T01:46:59;14.50;;;10.75;;
43744;SDS011;29359;53.048;8.732;2022-11-20T01:49:15;15.23;;;10.23;;
43744;SDS011;29359;53.048;8.732;2022-11-20T01:53:30;15.50;;;10.77;;
43744;SDS011;29359;53.048;8.732;2022-11-20T01:55:35;20.35;;;12.15;;
43744;SDS011;29359;53.048;8.732;2022-11-20T01:57:40;15.93;;;11.63;;
43744;SDS011;29359;53.048;8.732;2022-11-20T01:59:47;18.67;;;11.98;;
43744;SDS011;29359;53.048;8.732;2022-11-20T02:01:58;30.90;;;14.65;;
43744;SDS011;29359;53.048;8.732;2022-11-20T02:03:59;24.13;;;13.10;;
43744;SDS011;29359;53.048;8.732;2022-11-20T02:08:15;25.50;;;14.20;;
43744;SDS011;29359;53.048;8.732;2022-11-20T02:10:18;22.85;;;14.10;;
43744;SDS011;29359;53.048;8.732;2022-11-20T02:12:19;23.90;;;13.65;;
43744;SDS011;29359;53.048;8.732;2022-11-20T02:14:40;25.23;;;13.25;;
43744;SDS011;29359;53.048;8.732;2022-11-20T02:16:45;21.42;;;13.07;;
43744;SDS011;29359;53.048;8.732;2022-11-20T02:18:49;24.10;;;12.32;;
43744;SDS011;29359;53.048;8.732;2022-11-20T02:20:56;25.30;;;12.52;;
43744;SDS011;29359;53.048;8.732;2022-11-20T02:23:06;19.88;;;12.40;;
43744;SDS011;29359;53.048;8.732;2022-11-20T02:25:13;22.00;;;12.35;;
43744;SDS011;29359;53.048;8.732;2022-11-20T02:27:15;22.58;;;12.95;;
43744;SDS011;29359;53.048;8.732;2022-11-20T02:29:37;21.23;;;11.80;;
43744;SDS011;29359;53.048;8.732;2022-11-20T02:31:43;18.13;;;11.05;;
43744;SDS011;29359;53.048;8.732;2022-11-20T02:33:44;22.40;;;12.10;;
43744;SDS011;29359;53.048;8.732;2022-11-20T02:35:46;18.00;;;10.80;;
43744;SDS011;29359;53.048;8.732;2022-11-20T02:37:48;18.20;;;11.48;;
43744;SDS011;29359;53.048;8.732;2022-11-20T02:39:52;15.93;;;11.10;;
43744;SDS011;29359;53.048;8.732;2022-11-20T02:41:53;17.15;;;11.10;;
43744;SDS011;29359;53.048;8.732;2022-11-20T02:43:56;16.67;;;11.55;;
43744;SDS011;29359;53.048;8.732;2022-11-20T02:45:58;17.77;;;11.60;;
43744;SDS011;29359;53.048;8.732;2022-11-20T02:47:59;20.88;;;11.40;;
43744;SDS011;29359;53.048;8.732;2022-11-20T02:50:01;16.98;;;10.82;;
43744;SDS011;29359;53.048;8.732;2022-11-20T02:52:04;19.60;;;10.70;;
43744;SDS011;29359;53.048;8.732;2022-11-20T02:54:05;16.67;;;11.30;;
43744;SDS011;29359;53.048;8.732;2022-11-20T02:56:07;14.40;;;10.07;;
43744;SDS011;29359;53.048;8.732;2022-11-20T02:58:08;14.77;;;10.85;;
43744;SDS011;29359;53.048;8.732;2022-11-20T03:00:10;14.35;;;10.70;;
43744;SDS011;29359;53.048;8.732;2022-11-20T03:02:12;16.10;;;10.45;;
43744;SDS011;29359;53.048;8.732;2022-11-20T03:04:13;15.75;;;10.65;;
43744;SDS011;29359;53.048;8.732;2022-11-20T03:06:15;15.98;;;10.88;;
43744;SDS011;29359;53.048;8.732;2022-11-20T03:08:17;17.58;;;10.20;;
43744;SDS011;29359;53.048;8.732;2022-11-20T03:10:19;16.17;;;9.98;;
43744;SDS011;29359;53.048;8.732;2022-11-20T03:12:20;13.07;;;9.63;;
43744;SDS011;29359;53.048;8.732;2022-11-20T03:14:22;14.45;;;9.55;;
43744;SDS011;29359;53.048;8.732;2022-11-20T03:16:24;13.63;;;9.52;;
43744;SDS011;29359;53.048;8.732;2022-11-20T03:18:27;16.75;;;9.88;;
43744;SDS011;29359;53.048;8.732;2022-11-20T03:20:30;14.43;;;9.05;;
43744;SDS011;29359;53.048;8.732;2022-11-20T03:22:33;16.08;;;10.05;;
43744;SDS011;29359;53.048;8.732;2022-11-20T03:24:34;13.15;;;9.02;;
43744;SDS011;29359;53.048;8.732;2022-11-20T03:26:36;15.23;;;9.20;;
43744;SDS011;29359;53.048;8.732;2022-11-20T03:28:37;14.60;;;9.52;;
43744;SDS011;29359;53.048;8.732;2022-11-20T03:30:39;14.85;;;9.45;;
43744;SDS011;29359;53.048;8.732;2022-11-20T03:32:40;16.10;;;10.02;;
43744;SDS011;29359;53.048;8.732;2022-11-20T03:34:42;13.55;;;8.82;;
43744;SDS011;29359;53.048;8.732;2022-11-20T03:36:44;18.65;;;9.18;;
43744;SDS011;29359;53.048;8.732;2022-11-20T03:38:45;13.05;;;9.55;;
43744;SDS011;29359;53.048;8.732;2022-11-20T03:40:48;13.82;;;8.55;;
43744;SDS011;29359;53.048;8.732;2022-11-20T03:42:49;13.65;;;8.98;;
43744;SDS011;29359;53.048;8.732;2022-11-20T03:44:51;11.50;;;7.97;;
43744;SDS011;29359;53.048;8.732;2022-11-20T03:46:52;15.20;;;8.70;;
43744;SDS011;29359;53.048;8.732;2022-11-20T03:48:54;14.48;;;8.20;;
43744;SDS011;29359;53.048;8.732;2022-11-20T03:51:08;11.13;;;7.90;;
43744;SDS011;29359;53.048;8.732;2022-11-20T03:53:15;10.55;;;7.82;;
43744;SDS011;29359;53.048;8.732;2022-11-20T03:55:17;12.20;;;8.10;;
43744;SDS011;29359;53.048;8.732;2022-11-20T03:57:19;11.18;;;8.25;;
43744;SDS011;29359;53.048;8.732;2022-11-20T03:59:20;10.80;;;8.27;;
43744;SDS011;29359;53.048;8.732;2022-11-20T04:01:23;10.07;;;8.35;;
43744;SDS011;29359;53.048;8.732;2022-11-20T04:03:26;12.55;;;8.98;;
43744;SDS011;29359;53.048;8.732;2022-11-20T04:05:28;9.60;;;7.88;;
43744;SDS011;29359;53.048;8.732;2022-11-20T04:07:29;11.68;;;8.05;;
43744;SDS011;29359;53.048;8.732;2022-11-20T04:09:31;10.82;;;8.02;;
43744;SDS011;29359;53.048;8.732;2022-11-20T04:11:33;11.57;;;7.45;;
43744;SDS011;29359;53.048;8.732;2022-11-20T04:13:36;11.32;;;7.75;;
43744;SDS011;29359;53.048;8.732;2022-11-20T04:15:38;12.10;;;7.65;;
43744;SDS011;29359;53.048;8.732;2022-11-20T04:17:39;12.23;;;8.20;;
43744;SDS011;29359;53.048;8.732;2022-11-20T04:19:41;11.07;;;7.57;;
43744;SDS011;29359;53.048;8.732;2022-11-20T04:21:43;8.65;;;7.35;;
43744;SDS011;29359;53.048;8.732;2022-11-20T04:23:45;14.95;;;7.47;;
43744;SDS011;29359;53.048;8.732;2022-11-20T04:25:46;13.48;;;7.38;;
43744;SDS011;29359;53.048;8.732;2022-11-20T04:27:48;9.93;;;6.88;;
43744;SDS011;29359;53.048;8.732;2022-11-20T04:29:49;10.70;;;7.50;;
43744;SDS011;29359;53.048;8.732;2022-11-20T04:31:51;10.20;;;7.30;;
43744;SDS011;29359;53.048;8.732;2022-11-20T04:33:52;11.80;;;6.97;;
43744;SDS011;29359;53.048;8.732;2022-11-20T04:35:54;14.57;;;8.00;;
43744;SDS011;29359;53.048;8.732;2022-11-20T04:37:56;10.95;;;7.47;;
43744;SDS011;29359;53.048;8.732;2022-11-20T04:39:57;11.88;;;7.78;;
43744;SDS011;29359;53.048;8.732;2022-11-20T04:41:59;13.88;;;7.18;;
43744;SDS011;29359;53.048;8.732;2022-11-20T04:44:19;10.15;;;7.22;;
43744;SDS011;29359;53.048;8.732;2022-11-20T04:46:21;9.77;;;6.65;;
43744;SDS011;29359;53.048;8.732;2022-11-20T04:48:22;8.85;;;6.72;;
43744;SDS011;29359;53.048;8.732;2022-11-20T04:50:25;9.00;;;6.78;;
43744;SDS011;29359;53.048;8.732;2022-11-20T04:52:26;10.35;;;6.93;;
43744;SDS011;29359;53.048;8.732;2022-11-20T04:54:28;8.70;;;6.60;;
43744;SDS011;29359;53.048;8.732;2022-11-20T04:56:29;10.13;;;6.57;;
43744;SDS011;29359;53.048;8.732;2022-11-20T04:58:31;10.13;;;6.97;;
43744;SDS011;29359;53.048;8.732;2022-11-20T05:00:33;7.45;;;6.53;;
43744;SDS011;29359;53.048;8.732;2022-11-20T05:02:35;9.18;;;6.80;;
43744;SDS011;29359;53.048;8.732;2022-11-20T05:04:36;7.07;;;6.38;;
43744;SDS011;29359;53.048;8.732;2022-11-20T05:06:38;15.57;;;6.57;;
43744;SDS011;29359;53.048;8.732;2022-11-20T05:08:39;8.35;;;6.22;;
43744;SDS011;29359;53.048;8.732;2022-11-20T05:10:42;11.85;;;6.50;;
43744;SDS011;29359;53.048;8.732;2022-11-20T05:12:43;10.73;;;6.40;;
43744;SDS011;29359;53.048;8.732;2022-11-20T05:14:45;10.25;;;6.63;;
43744;SDS011;29359;53.048;8.732;2022-11-20T05:16:46;8.02;;;6.30;;
43744;SDS011;29359;53.048;8.732;2022-11-20T05:18:48;9.13;;;6.43;;
43744;SDS011;29359;53.048;8.732;2022-11-20T05:20:54;7.70;;;6.05;;
43744;SDS011;29359;53.048;8.732;2022-11-20T05:22:56;6.68;;;5.95;;
43744;SDS011;29359;53.048;8.732;2022-11-20T05:24:58;12.07;;;6.70;;
43744;SDS011;29359;53.048;8.732;2022-11-20T05:27:00;9.63;;;6.18;;
43744;SDS011;29359;53.048;8.732;2022-11-20T05:29:01;6.93;;;5.93;;
43744;SDS011;29359;53.048;8.732;2022-11-20T05:31:03;9.27;;;6.25;;
43744;SDS011;29359;53.048;8.732;2022-11-20T05:33:07;8.15;;;6.10;;
43744;SDS011;29359;53.048;8.732;2022-11-20T05:35:09;8.95;;;6.63;;
43744;SDS011;29359;53.048;8.732;2022-11-20T05:37:10;6.78;;;5.68;;
43744;SDS011;29359;53.048;8.732;2022-11-20T05:39:12;6.95;;;6.03;;
43744;SDS011;29359;53.048;8.732;2022-11-20T05:41:14;8.10;;;6.28;;
43744;SDS011;29359;53.048;8.732;2022-11-20T05:43:17;8.45;;;5.78;;
43744;SDS011;29359;53.048;8.732;2022-11-20T05:45:19;5.85;;;5.32;;
43744;SDS011;29359;53.048;8.732;2022-11-20T05:47:22;9.50;;;6.38;;
43744;SDS011;29359;53.048;8.732;2022-11-20T05:49:23;13.52;;;6.30;;
43744;SDS011;29359;53.048;8.732;2022-11-20T05:51:25;6.28;;;5.65;;
43744;SDS011;29359;53.048;8.732;2022-11-20T05:53:27;8.25;;;6.10;;
43744;SDS011;29359;53.048;8.732;2022-11-20T05:55:29;6.93;;;6.10;;
43744;SDS011;29359;53.048;8.732;2022-11-20T05:57:31;7.75;;;6.00;;
43744;SDS011;29359;53.048;8.732;2022-11-20T05:59:32;7.13;;;6.10;;
43744;SDS011;29359;53.048;8.732;2022-11-20T06:01:34;8.38;;;6.38;;
43744;SDS011;29359;53.048;8.732;2022-11-20T06:03:37;7.65;;;5.88;;
43744;SDS011;29359;53.048;8.732;2022-11-20T06:05:40;7.45;;;5.93;;
43744;SDS011;29359;53.048;8.732;2022-11-20T06:07:41;6.22;;;5.63;;
43744;SDS011;29359;53.048;8.732;2022-11-20T06:09:43;8.80;;;6.70;;
43744;SDS011;29359;53.048;8.732;2022-11-20T06:11:44;7.00;;;5.88;;
43744;SDS011;29359;53.048;8.732;2022-11-20T06:13:46;7.18;;;5.97;;
43744;SDS011;29359;53.048;8.732;2022-11-20T06:15:51;7.47;;;6.03;;
43744;SDS011;29359;53.048;8.732;2022-11-20T06:17:54;10.75;;;6.53;;
43744;SDS011;29359;53.048;8.732;2022-11-20T06:19:56;11.85;;;7.28;;
43744;SDS011;29359;53.048;8.732;2022-11-20T06:21:58;8.93;;;6.85;;
43744;SDS011;29359;53.048;8.732;2022-11-20T06:23:59;10.05;;;7.80;;
43744;SDS011;29359;53.048;8.732;2022-11-20T06:26:01;10.43;;;7.03;;
43744;SDS011;29359;53.048;8.732;2022-11-20T06:28:08;7.25;;;5.72;;
43744;SDS011;29359;53.048;8.732;2022-11-20T06:30:10;11.15;;;6.72;;
43744;SDS011;29359;53.048;8.732;2022-11-20T06:32:12;10.18;;;7.07;;
43744;SDS011;29359;53.048;8.732;2022-11-20T06:34:13;9.63;;;6.55;;
43744;SDS011;29359;53.048;8.732;2022-11-20T06:36:16;11.68;;;7.43;;
43744;SDS011;29359;53.048;8.732;2022-11-20T06:38:19;11.48;;;7.03;;
43744;SDS011;29359;53.048;8.732;2022-11-20T06:40:20;11.45;;;7.45;;
43744;SDS011;29359;53.048;8.732;2022-11-20T06:42:22;9.95;;;7.50;;
43744;SDS011;29359;53.048;8.732;2022-11-20T06:44:23;11.20;;;7.82;;
43744;SDS011;29359;53.048;8.732;2022-11-20T06:46:25;12.55;;;7.20;;
43744;SDS011;29359;53.048;8.732;2022-11-20T06:48:27;12.10;;;7.88;;
43744;SDS011;29359;53.048;8.732;2022-11-20T06:50:29;13.50;;;8.07;;
43744;SDS011;29359;53.048;8.732;2022-11-20T06:52:31;15.05;;;8.07;;
43744;SDS011;29359;53.048;8.732;2022-11-20T06:54:32;12.38;;;8.02;;
43744;SDS011;29359;53.048;8.732;2022-11-20T06:56:34;15.10;;;8.48;;
43744;SDS011;29359;53.048;8.732;2022-11-20T06:58:36;11.52;;;7.93;;
43744;SDS011;29359;53.048;8.732;2022-11-20T07:00:38;15.07;;;7.95;;
43744;SDS011;29359;53.048;8.732;2022-11-20T07:02:39;12.60;;;7.93;;
43744;SDS011;29359;53.048;8.732;2022-11-20T07:04:41;12.63;;;7.35;;
43744;SDS011;29359;53.048;8.732;2022-11-20T07:06:42;12.57;;;7.63;;
43744;SDS011;29359;53.048;8.732;2022-11-20T07:08:43;12.00;;;8.68;;
43744;SDS011;29359;53.048;8.732;2022-11-20T07:10:45;12.57;;;7.50;;
43744;SDS011;29359;53.048;8.732;2022-11-20T07:12:50;10.68;;;7.53;;
43744;SDS011;29359;53.048;8.732;2022-11-20T07:14:52;14.00;;;7.82;;
43744;SDS011;29359;53.048;8.732;2022-11-20T07:16:54;12.45;;;8.50;;
43744;SDS011;29359;53.048;8.732;2022-11-20T07:18:56;10.73;;;7.38;;
43744;SDS011;29359;53.048;8.732;2022-11-20T07:21:01;12.98;;;7.30;;
43744;SDS011;29359;53.048;8.732;2022-11-20T07:23:03;9.23;;;6.80;;
43744;SDS011;29359;53.048;8.732;2022-11-20T07:25:05;9.73;;;7.53;;
43744;SDS011;29359;53.048;8.732;2022-11-20T07:27:07;10.15;;;7.57;;
43744;SDS011;29359;53.048;8.732;2022-11-20T07:29:09;8.98;;;7.50;;
43744;SDS011;29359;53.048;8.732;2022-11-20T07:31:10;9.35;;;7.15;;
43744;SDS011;29359;53.048;8.732;2022-11-20T07:33:19;11.45;;;7.75;;
43744;SDS011;29359;53.048;8.732;2022-11-20T07:35:21;12.55;;;7.65;;
43744;SDS011;29359;53.048;8.732;2022-11-20T07:37:24;11.50;;;7.88;;
43744;SDS011;29359;53.048;8.732;2022-11-20T07:39:25;8.55;;;7.20;;
43744;SDS011;29359;53.048;8.732;2022-11-20T07:41:26;9.13;;;7.20;;
43744;SDS011;29359;53.048;8.732;2022-11-20T07:43:28;9.55;;;7.13;;
43744;SDS011;29359;53.048;8.732;2022-11-20T07:45:30;8.52;;;7.28;;
43744;SDS011;29359;53.048;8.732;2022-11-20T07:47:35;8.70;;;7.30;;
43744;SDS011;29359;53.048;8.732;2022-11-20T07:49:37;10.00;;;7.53;;
43744;SDS011;29359;53.048;8.732;2022-11-20T07:51:39;9.95;;;7.00;;
43744;SDS011;29359;53.048;8.732;2022-11-20T07:53:40;9.15;;;7.28;;
43744;SDS011;29359;53.048;8.732;2022-11-20T07:55:42;10.10;;;7.72;;
43744;SDS011;29359;53.048;8.732;2022-11-20T07:57:43;9.60;;;7.32;;
43744;SDS011;29359;53.048;8.732;2022-11-20T07:59:45;11.05;;;7.68;;
43744;SDS011;29359;53.048;8.732;2022-11-20T08:01:47;11.90;;;7.60;;
43744;SDS011;29359;53.048;8.732;2022-11-20T08:03:48;9.57;;;7.88;;
43744;SDS011;29359;53.048;8.732;2022-11-20T08:05:50;8.40;;;7.50;;
43744;SDS011;29359;53.048;8.732;2022-11-20T08:07:51;12.32;;;8.10;;
43744;SDS011;29359;53.048;8.732;2022-11-20T08:09:53;11.13;;;8.05;;
43744;SDS011;29359;53.048;8.732;2022-11-20T08:11:54;11.73;;;8.50;;
43744;SDS011;29359;53.048;8.732;2022-11-20T08:14:15;11.50;;;7.78;;
43744;SDS011;29359;53.048;8.732;2022-11-20T08:16:16;10.93;;;8.27;;
43744;SDS011;29359;53.048;8.732;2022-11-20T08:18:18;13.77;;;8.32;;
43744;SDS011;29359;53.048;8.732;2022-11-20T08:20:35;11.40;;;7.35;;
43744;SDS011;29359;53.048;8.732;2022-11-20T08:22:37;11.60;;;7.93;;
43744;SDS011;29359;53.048;8.732;2022-11-20T08:24:38;10.30;;;7.78;;
43744;SDS011;29359;53.048;8.732;2022-11-20T08:26:40;10.82;;;8.02;;
43744;SDS011;29359;53.048;8.732;2022-11-20T08:28:42;11.52;;;7.30;;
43744;SDS011;29359;53.048;8.732;2022-11-20T08:30:43;13.32;;;8.18;;
43744;SDS011;29359;53.048;8.732;2022-11-20T08:32:46;9.93;;;7.93;;
43744;SDS011;29359;53.048;8.732;2022-11-20T08:34:48;10.10;;;8.27;;
43744;SDS011;29359;53.048;8.732;2022-11-20T08:36:49;12.27;;;8.25;;
43744;SDS011;29359;53.048;8.732;2022-11-20T08:38:52;11.05;;;8.43;;
43744;SDS011;29359;53.048;8.732;2022-11-20T08:40:58;10.45;;;7.88;;
43744;SDS011;29359;53.048;8.732;2022-11-20T08:43:19;9.25;;;7.75;;
43744;SDS011;29359;53.048;8.732;2022-11-20T08:45:20;16.38;;;7.85;;
43744;SDS011;29359;53.048;8.732;2022-11-20T08:47:22;11.23;;;8.18;;
43744;SDS011;29359;53.048;8.732;2022-11-20T08:49:23;11.35;;;7.70;;
43744;SDS011;29359;53.048;8.732;2022-11-20T08:51:25;10.30;;;8.10;;
43744;SDS011;29359;53.048;8.732;2022-11-20T08:53:27;11.52;;;7.53;;
43744;SDS011;29359;53.048;8.732;2022-11-20T08:55:28;8.40;;;7.47;;
43744;SDS011;29359;53.048;8.732;2022-11-20T08:57:33;12.23;;;8.10;;
43744;SDS011;29359;53.048;8.732;2022-11-20T08:59:36;10.93;;;7.90;;
43744;SDS011;29359;53.048;8.732;2022-11-20T09:01:57;8.90;;;7.30;;
43744;SDS011;29359;53.048;8.732;2022-11-20T09:03:59;12.73;;;8.02;;
43744;SDS011;29359;53.048;8.732;2022-11-20T09:06:02;10.88;;;8.02;;
43744;SDS011;29359;53.048;8.732;2022-11-20T09:08:04;9.27;;;7.32;;
43744;SDS011;29359;53.048;8.732;2022-11-20T09:10:06;10.73;;;7.78;;
43744;SDS011;29359;53.048;8.732;2022-11-20T09:12:25;11.00;;;8.23;;
43744;SDS011;29359;53.048;8.732;2022-11-20T09:14:26;9.45;;;7.70;;
43744;SDS011;29359;53.048;8.732;2022-11-20T09:16:30;11.05;;;7.35;;
43744;SDS011;29359;53.048;8.732;2022-11-20T09:18:31;12.48;;;8.32;;
43744;SDS011;29359;53.048;8.732;2022-11-20T09:20:34;18.25;;;10.18;;
43744;SDS011;29359;53.048;8.732;2022-11-20T09:22:39;9.40;;;7.57;;
43744;SDS011;29359;53.048;8.732;2022-11-20T09:24:41;49.45;;;24.42;;
43744;SDS011;29359;53.048;8.732;2022-11-20T09:26:43;15.20;;;10.27;;
43744;SDS011;29359;53.048;8.732;2022-11-20T09:28:45;9.30;;;7.78;;
43744;SDS011;29359;53.048;8.732;2022-11-20T09:30:47;14.02;;;7.70;;
43744;SDS011;29359;53.048;8.732;2022-11-20T09:32:49;8.30;;;7.40;;
43744;SDS011;29359;53.048;8.732;2022-11-20T09:34:50;9.57;;;7.40;;
43744;SDS011;29359;53.048;8.732;2022-11-20T09:36:52;12.23;;;7.90;;
43744;SDS011;29359;53.048;8.732;2022-11-20T09:38:53;20.20;;;12.93;;
43744;SDS011;29359;53.048;8.732;2022-11-20T09:41:02;19.23;;;13.27;;
43744;SDS011;29359;53.048;8.732;2022-11-20T09:43:23;10.02;;;7.93;;
43744;SDS011;29359;53.048;8.732;2022-11-20T09:45:43;14.52;;;8.18;;
43744;SDS011;29359;53.048;8.732;2022-11-20T09:50:31;12.68;;;8.45;;
43744;SDS011;29359;53.048;8.732;2022-11-20T09:54:50;9.73;;;7.68;;
43744;SDS011;29359;53.048;8.732;2022-11-20T09:57:01;32.60;;;16.23;;
43744;SDS011;29359;53.048;8.732;2022-11-20T09:59:06;22.25;;;12.40;;
43744;SDS011;29359;53.048;8.732;2022-11-20T10:01:16;12.20;;;8.90;;
43744;SDS011;29359;53.048;8.732;2022-11-20T10:03:24;10.57;;;8.30;;
43744;SDS011;29359;53.048;8.732;2022-11-20T10:05:39;9.77;;;8.23;;
43744;SDS011;29359;53.048;8.732;2022-11-20T10:09:56;15.30;;;9.40;;
43744;SDS011;29359;53.048;8.732;2022-11-20T10:16:44;19.33;;;9.68;;
43744;SDS011;29359;53.048;8.732;2022-11-20T10:26:00;11.32;;;8.55;;
43744;SDS011;29359;53.048;8.732;2022-11-20T10:30:14;13.57;;;8.88;;
43744;SDS011;29359;53.048;8.732;2022-11-20T10:32:19;9.75;;;8.02;;
43744;SDS011;29359;53.048;8.732;2022-11-20T10:34:26;10.75;;;8.30;;
43744;SDS011;29359;53.048;8.732;2022-11-20T10:36:37;8.93;;;7.90;;
43744;SDS011;29359;53.048;8.732;2022-11-20T10:38:51;9.48;;;7.65;;
43744;SDS011;29359;53.048;8.732;2022-11-20T10:40:59;14.25;;;8.15;;
43744;SDS011;29359;53.048;8.732;2022-11-20T10:43:32;11.40;;;8.85;;
43744;SDS011;29359;53.048;8.732;2022-11-20T10:47:41;9.20;;;7.63;;
43744;SDS011;29359;53.048;8.732;2022-11-20T10:49:44;11.65;;;8.07;;
43744;SDS011;29359;53.048;8.732;2022-11-20T10:59:04;10.27;;;7.40;;
43744;SDS011;29359;53.048;8.732;2022-11-20T11:01:16;10.18;;;7.55;;
43744;SDS011;29359;53.048;8.732;2022-11-20T11:03:27;11.13;;;7.43;;
43744;SDS011;29359;53.048;8.732;2022-11-20T11:05:33;10.40;;;7.43;;
43744;SDS011;29359;53.048;8.732;2022-11-20T11:07:41;9.98;;;7.20;;
43744;SDS011;29359;53.048;8.732;2022-11-20T11:09:44;10.45;;;7.32;;
43744;SDS011;29359;53.048;8.732;2022-11-20T11:11:50;10.52;;;6.63;;
43744;SDS011;29359;53.048;8.732;2022-11-20T11:13:52;7.90;;;6.53;;
43744;SDS011;29359;53.048;8.732;2022-11-20T11:15:54;7.68;;;6.72;;
43744;SDS011;29359;53.048;8.732;2022-11-20T11:17:56;7.22;;;6.50;;
43744;SDS011;29359;53.048;8.732;2022-11-20T11:21:59;7.32;;;5.97;;
43744;SDS011;29359;53.048;8.732;2022-11-20T11:24:03;20.33;;;14.95;;
43744;SDS011;29359;53.048;8.732;2022-11-20T11:26:25;13.23;;;9.27;;
43744;SDS011;29359;53.048;8.732;2022-11-20T11:28:27;11.77;;;8.93;;
43744;SDS011;29359;53.048;8.732;2022-11-20T11:30:30;7.22;;;6.53;;
43744;SDS011;29359;53.048;8.732;2022-11-20T11:32:42;8.07;;;6.35;;
43744;SDS011;29359;53.048;8.732;2022-11-20T11:34:44;11.20;;;7.03;;
43744;SDS011;29359;53.048;8.732;2022-11-20T11:36:51;7.82;;;6.72;;
43744;SDS011;29359;53.048;8.732;2022-11-20T11:38:57;8.93;;;6.72;;
43744;SDS011;29359;53.048;8.732;2022-11-20T11:40:58;10.32;;;6.43;;
43744;SDS011;29359;53.048;8.732;2022-11-20T11:43:01;8.23;;;6.25;;
43744;SDS011;29359;53.048;8.732;2022-11-20T11:45:06;8.35;;;6.60;;
43744;SDS011;29359;53.048;8.732;2022-11-20T11:47:28;6.70;;;5.95;;
43744;SDS011;29359;53.048;8.732;2022-11-20T11:49:33;6.88;;;6.15;;
43744;SDS011;29359;53.048;8.732;2022-11-20T11:51:39;7.75;;;6.43;;
43744;SDS011;29359;53.048;8.732;2022-11-20T11:53:48;8.80;;;6.60;;
43744;SDS011;29359;53.048;8.732;2022-11-20T12:00:21;8.02;;;6.10;;
43744;SDS011;29359;53.048;8.732;2022-11-20T12:02:25;8.13;;;6.47;;
43744;SDS011;29359;53.048;8.732;2022-11-20T12:04:46;6.18;;;5.57;;
43744;SDS011;29359;53.048;8.732;2022-11-20T12:07:03;9.18;;;6.68;;
43744;SDS011;29359;53.048;8.732;2022-11-20T12:09:35;7.07;;;6.38;;
43744;SDS011;29359;53.048;8.732;2022-11-20T12:14:19;7.30;;;6.28;;
43744;SDS011;29359;53.048;8.732;2022-11-20T12:16:27;9.77;;;6.40;;
43744;SDS011;29359;53.048;8.732;2022-11-20T12:18:34;7.82;;;6.18;;
43744;SDS011;29359;53.048;8.732;2022-11-20T12:20:39;36.47;;;17.70;;
43744;SDS011;29359;53.048;8.732;2022-11-20T12:22:56;11.45;;;8.18;;
43744;SDS011;29359;53.048;8.732;2022-11-20T12:29:41;8.18;;;6.50;;
43744;SDS011;29359;53.048;8.732;2022-11-20T12:31:55;7.70;;;6.35;;
43744;SDS011;29359;53.048;8.732;2022-11-20T12:34:05;8.48;;;6.60;;
43744;SDS011;29359;53.048;8.732;2022-11-20T12:36:23;6.78;;;6.07;;
43744;SDS011;29359;53.048;8.732;2022-11-20T12:38:35;8.70;;;6.47;;
43744;SDS011;29359;53.048;8.732;2022-11-20T12:43:26;7.55;;;6.68;;
43744;SDS011;29359;53.048;8.732;2022-11-20T12:46:35;8.93;;;7.35;;
43744;SDS011;29359;53.048;8.732;2022-11-20T12:55:45;9.50;;;7.55;;
43744;SDS011;29359;53.048;8.732;2022-11-20T12:57:55;9.48;;;7.65;;
43744;SDS011;29359;53.048;8.732;2022-11-20T13:00:07;11.73;;;8.25;;
43744;SDS011;29359;53.048;8.732;2022-11-20T13:04:33;9.05;;;7.47;;
43744;SDS011;29359;53.048;8.732;2022-11-20T13:06:47;8.80;;;7.50;;
43744;SDS011;29359;53.048;8.732;2022-11-20T13:08:54;9.82;;;8.00;;
43744;SDS011;29359;53.048;8.732;2022-11-20T13:11:07;11.90;;;7.60;;
43744;SDS011;29359;53.048;8.732;2022-11-20T13:13:20;8.98;;;7.65;;
43744;SDS011;29359;53.048;8.732;2022-11-20T13:17:55;10.32;;;8.52;;
43744;SDS011;29359;53.048;8.732;2022-11-20T13:19:57;10.90;;;9.20;;
43744;SDS011;29359;53.048;8.732;2022-11-20T13:22:00;17.25;;;10.52;;
43744;SDS011;29359;53.048;8.732;2022-11-20T13:24:05;16.40;;;10.57;;